Time;durP1;ratioP1;P1;durP2;ratioP2;P2;SDS_P1;SDS_P2;PMS_P1;PMS_P2;Temp;Humidity;BMP_temperature;BMP_pressure;BME280_temperature;BME280_humidity;BME280_pressure;Samples;Min_cycle;Max_cycle;Signal;HPM_P1;HPM_P2
2023/12/23 00:01:00;;;;;;;11.13;2.05;;;;;;;6.24;100.00;100963.44;5176317;27;20067;-74
2023/12/23 00:03:26;;;;;;;9.70;1.63;;;;;;;6.23;100.00;100961.94;5175321;27;20050;-74
2023/12/23 00:05:53;;;;;;;10.32;1.88;;;;;;;6.23;100.00;100969.88;5176708;27;20039;-74
2023/12/23 00:08:19;;;;;;;9.25;1.58;;;;;;;6.23;100.00;100969.13;5175974;27;20047;-74
2023/12/23 00:10:46;;;;;;;8.68;1.80;;;;;;;6.23;100.00;100971.78;5176378;27;20043;-74
2023/12/23 00:13:13;;;;;;;12.93;1.73;;;;;;;6.23;100.00;100969.13;5175439;27;20130;-74
2023/12/23 00:15:39;;;;;;;12.18;1.67;;;;;;;6.24;100.00;100965.34;5171225;27;20509;-74
2023/12/23 00:18:06;;;;;;;7.20;1.40;;;;;;;6.23;100.00;100969.88;5172110;27;20039;-74
2023/12/23 00:20:33;;;;;;;9.80;1.40;;;;;;;6.25;100.00;100959.66;5175517;27;20047;-76
2023/12/23 00:22:59;;;;;;;4.72;1.80;;;;;;;6.24;100.00;100965.34;5175429;27;20061;-75
2023/12/23 00:25:26;;;;;;;9.00;1.77;;;;;;;6.22;100.00;100967.63;5175401;27;21016;-75
2023/12/23 00:27:53;;;;;;;9.30;1.65;;;;;;;6.23;100.00;100959.31;5175926;27;20046;-75
2023/12/23 00:30:19;;;;;;;8.57;1.40;;;;;;;6.23;100.00;100956.66;5175581;27;20050;-76
2023/12/23 00:32:46;;;;;;;14.93;2.10;;;;;;;6.25;100.00;100950.97;5174811;27;20046;-76
2023/12/23 00:35:13;;;;;;;7.72;1.33;;;;;;;6.26;100.00;100941.88;5175950;27;20137;-75
2023/12/23 00:37:41;;;;;;;5.82;2.03;;;;;;;6.26;100.00;100941.88;5152973;27;20047;-75
2023/12/23 00:40:08;;;;;;;10.90;1.85;;;;;;;6.27;100.00;100940.75;5174899;27;20035;-75
2023/12/23 00:42:35;;;;;;;6.88;1.83;;;;;;;6.27;100.00;100943.38;5174785;27;20469;-75
2023/12/23 00:45:02;;;;;;;10.38;1.98;;;;;;;6.25;100.00;100935.09;5175290;27;20035;-75
2023/12/23 00:47:28;;;;;;;8.23;1.55;;;;;;;6.25;100.00;100935.09;5174209;27;20046;-75
2023/12/23 00:50:02;;;;;;;7.25;1.40;;;;;;;6.24;100.00;100933.63;5175161;27;20047;-75
2023/12/23 00:52:29;;;;;;;7.18;1.60;;;;;;;6.25;100.00;100943.03;5174406;27;20126;-75
2023/12/23 00:54:55;;;;;;;6.53;1.35;;;;;;;6.26;100.00;100928.66;5176141;27;20047;-75
2023/12/23 00:57:22;;;;;;;18.42;1.90;;;;;;;6.27;100.00;100930.91;5174909;27;20057;-75
2023/12/23 00:59:48;;;;;;;4.10;1.20;;;;;;;6.27;100.00;100933.56;5175543;27;20429;-75
2023/12/23 01:02:15;;;;;;;9.38;2.13;;;;;;;6.27;100.00;100930.91;5174732;27;20139;-75
2023/12/23 01:04:42;;;;;;;11.90;1.35;;;;;;;6.28;100.00;100926.38;5170420;27;20039;-75
2023/12/23 01:07:10;;;;;;;15.20;2.00;;;;;;;6.29;100.00;100922.56;5175125;27;20089;-75
2023/12/23 01:09:36;;;;;;;12.27;2.13;;;;;;;6.28;100.00;100923.72;5174641;27;20133;-75
2023/12/23 01:12:04;;;;;;;3.33;1.17;;;;;;;6.29;100.00;100925.22;5156882;27;20054;-75
2023/12/23 01:14:30;;;;;;;11.77;1.65;;;;;;;6.27;100.00;100915.03;5155202;27;20509;-76
2023/12/23 01:16:57;;;;;;;7.43;1.90;;;;;;;6.28;100.00;100916.53;5179077;27;20039;-75
2023/12/23 01:19:24;;;;;;;9.38;1.35;;;;;;;6.27;100.00;100925.63;5181660;27;20043;-75
2023/12/23 01:21:51;;;;;;;6.18;1.48;;;;;;;6.27;100.00;100919.59;5162560;27;20041;-75
2023/12/23 01:24:18;;;;;;;4.95;1.15;;;;;;;6.28;100.00;100911.25;5161867;27;20042;-75
2023/12/23 01:26:45;;;;;;;4.05;1.38;;;;;;;6.29;100.00;100899.53;5175809;27;20490;-74
2023/12/23 01:29:11;;;;;;;8.02;1.45;;;;;;;6.30;100.00;100910.84;5175101;27;20552;-74
2023/12/23 01:31:38;;;;;;;10.27;1.38;;;;;;;6.29;100.00;100888.94;5155088;27;20073;-74
2023/12/23 01:34:04;;;;;;;11.60;1.23;;;;;;;6.30;100.00;100889.69;5174218;27;20041;-74
2023/12/23 01:36:31;;;;;;;6.97;1.48;;;;;;;6.30;100.00;100882.50;5174292;27;20566;-74
2023/12/23 01:38:57;;;;;;;7.80;1.20;;;;;;;6.31;100.00;100891.19;5156344;27;20042;-74
2023/12/23 01:41:24;;;;;;;11.45;1.52;;;;;;;6.31;100.00;100870.78;5174483;27;20039;-74
2023/12/23 01:43:50;;;;;;;10.07;1.40;;;;;;;6.33;100.00;100875.66;5174476;27;20043;-74
2023/12/23 01:46:18;;;;;;;18.55;1.83;;;;;;;6.31;100.00;100870.78;5174982;27;20039;-74
2023/12/23 01:48:45;;;;;;;5.10;1.15;;;;;;;6.34;100.00;100864.69;5174026;27;20047;-74
2023/12/23 01:51:12;;;;;;;11.38;1.27;;;;;;;6.35;100.00;100860.16;5174252;27;20034;-74
2023/12/23 01:53:40;;;;;;;6.85;1.70;;;;;;;6.34;100.00;100861.28;5158710;27;20134;-74
2023/12/23 01:56:07;;;;;;;5.28;1.10;;;;;;;6.34;100.00;100864.69;5177691;27;20035;-74
2023/12/23 01:58:34;;;;;;;7.88;1.10;;;;;;;6.34;100.00;100864.69;5158709;27;20041;-74
2023/12/23 02:01:01;;;;;;;9.85;1.30;;;;;;;6.34;100.00;100862.03;5178293;27;20122;-74
2023/12/23 02:03:28;;;;;;;6.97;1.17;;;;;;;6.35;100.00;100858.25;5176926;27;20038;-74
2023/12/23 02:05:55;;;;;;;8.05;0.95;;;;;;;6.37;100.00;100857.09;5159413;27;20050;-74
2023/12/23 02:08:22;;;;;;;7.75;1.20;;;;;;;6.38;100.00;100853.31;5158770;27;20095;-74
2023/12/23 02:10:57;;;;;;;6.53;1.35;;;;;;;6.38;100.00;100853.31;5177800;27;20046;-74
2023/12/23 02:13:26;;;;;;;11.18;1.42;;;;;;;6.39;100.00;100850.25;5173333;27;20104;-75
2023/12/23 02:15:53;;;;;;;5.57;1.10;;;;;;;6.39;100.00;100844.22;5173827;27;20051;-75
2023/12/23 02:18:20;;;;;;;4.78;1.02;;;;;;;6.40;100.00;100835.13;5158098;27;20051;-74
2023/12/23 02:20:50;;;;;;;3.67;0.95;;;;;;;6.41;100.00;100832.03;5178164;27;20043;-75
2023/12/23 02:23:17;;;;;;;7.68;1.10;;;;;;;6.40;100.00;100827.91;5159124;27;20051;-74
2023/12/23 02:25:48;;;;;;;4.22;1.30;;;;;;;6.42;100.00;100822.22;5177651;27;20630;-74
2023/12/23 02:28:17;;;;;;;3.00;1.00;;;;;;;6.43;100.00;100813.13;5177053;27;20398;-75
2023/12/23 02:30:45;;;;;;;3.97;1.10;;;;;;;6.43;100.00;100816.53;5177705;27;20039;-74
2023/12/23 02:33:12;;;;;;;6.18;1.25;;;;;;;6.44;100.00;100815.38;5176785;27;20043;-74
2023/12/23 02:35:39;;;;;;;3.42;1.67;;;;;;;6.44;100.00;100809.34;5177388;27;20046;-74
2023/12/23 02:38:06;;;;;;;6.18;1.60;;;;;;;6.45;100.00;100811.56;5158609;27;20134;-74
2023/12/23 02:40:32;;;;;;;5.20;1.10;;;;;;;6.46;100.00;100789.25;5157673;27;20054;-74
2023/12/23 02:43:01;;;;;;;5.10;1.40;;;;;;;6.49;100.00;100782.41;5178386;27;20039;-74
2023/12/23 02:45:27;;;;;;;3.97;1.30;;;;;;;6.51;100.00;100780.09;5177223;27;20039;-74
2023/12/23 02:47:54;;;;;;;2.92;1.02;;;;;;;6.52;100.00;100769.13;5176972;27;20485;-75
2023/12/23 02:50:21;;;;;;;1.48;0.93;;;;;;;6.55;100.00;100778.13;5176525;27;20045;-74
2023/12/23 02:52:47;;;;;;;2.38;0.80;;;;;;;6.57;100.00;100773.91;5157899;27;20131;-75
2023/12/23 02:55:15;;;;;;;0.93;0.68;;;;;;;6.61;100.00;100768.56;5176730;27;20046;-75
2023/12/23 02:57:42;;;;;;;1.55;0.88;;;;;;;6.65;100.00;100761.28;5177377;27;20047;-74
2023/12/23 03:00:09;;;;;;;2.40;0.82;;;;;;;6.71;100.00;100754.34;5157920;27;20053;-74
2023/12/23 03:02:35;;;;;;;4.47;1.20;;;;;;;6.78;100.00;100756.84;5157553;27;20047;-74
2023/12/23 03:05:02;;;;;;;10.13;1.67;;;;;;;6.90;100.00;100750.88;5176428;27;20050;-75
2023/12/23 03:07:29;;;;;;;7.78;1.55;;;;;;;6.96;100.00;100740.56;5140485;27;20413;-74
2023/12/23 03:09:55;;;;;;;7.00;1.80;;;;;;;7.05;100.00;100732.78;5176766;27;20047;-75
2023/12/23 03:12:22;;;;;;;7.65;1.75;;;;;;;7.13;100.00;100720.13;5175503;27;20053;-75
2023/12/23 03:14:48;;;;;;;8.27;1.80;;;;;;;7.16;100.00;100722.69;5177140;27;20089;-75
2023/12/23 03:17:15;;;;;;;9.48;2.13;;;;;;;7.20;100.00;100730.50;5158489;27;20035;-74
2023/12/23 03:19:42;;;;;;;13.80;2.00;;;;;;;7.24;100.00;100726.63;5157946;27;20046;-74
2023/12/23 03:22:09;;;;;;;10.25;2.38;;;;;;;7.28;100.00;100716.69;5178304;27;20043;-75
2023/12/23 03:24:35;;;;;;;7.88;2.10;;;;;;;7.32;100.00;100714.69;5163908;27;20102;-75
2023/12/23 03:27:02;;;;;;;7.20;1.75;;;;;;;7.35;100.00;100713.88;5183885;27;20508;-75
2023/12/23 03:29:29;;;;;;;8.75;1.83;;;;;;;7.39;100.00;100715.69;5182701;27;20085;-74
2023/12/23 03:31:55;;;;;;;7.35;1.60;;;;;;;7.41;100.00;100713.34;5177665;27;20046;-74
2023/12/23 03:34:22;;;;;;;6.43;1.98;;;;;;;7.46;100.00;100715.50;5176779;27;20066;-74
2023/12/23 03:36:50;;;;;;;6.07;1.65;;;;;;;7.50;100.00;100705.56;5176616;27;20412;-74
2023/12/23 03:39:16;;;;;;;3.50;1.48;;;;;;;7.53;100.00;100699.44;5176887;27;20046;-74
2023/12/23 03:41:43;;;;;;;12.30;2.03;;;;;;;7.56;100.00;100707.28;5158170;27;20084;-74
2023/12/23 03:44:09;;;;;;;5.35;2.08;;;;;;;7.61;100.00;100698.78;5176259;27;20043;-74
2023/12/23 03:46:36;;;;;;;5.70;1.45;;;;;;;7.66;100.00;100698.28;5157058;27;20043;-74
2023/12/23 03:49:02;;;;;;;8.75;1.95;;;;;;;7.69;100.00;100692.16;5153706;27;20054;-74
2023/12/23 03:51:29;;;;;;;6.05;1.63;;;;;;;7.70;100.00;100685.69;5157264;27;20078;-74
2023/12/23 03:53:56;;;;;;;10.48;2.28;;;;;;;7.74;100.00;100692.78;5176087;27;20129;-75
2023/12/23 03:56:23;;;;;;;8.93;1.77;;;;;;;7.74;100.00;100695.44;5176484;27;20050;-75
2023/12/23 03:58:49;;;;;;;9.32;1.85;;;;;;;7.75;100.00;100681.03;5157203;27;20100;-75
2023/12/23 04:01:17;;;;;;;4.85;1.38;;;;;;;7.76;100.00;100679.88;5176316;27;20526;-75
2023/12/23 04:03:45;;;;;;;9.73;1.65;;;;;;;7.82;100.00;100668.34;5157125;27;20125;-75
2023/12/23 04:06:12;;;;;;;7.57;1.60;;;;;;;7.86;100.00;100676.94;5175984;27;20043;-75
2023/12/23 04:08:39;;;;;;;9.60;1.20;;;;;;;7.90;100.00;100664.31;5176044;27;20099;-75
2023/12/23 04:11:06;;;;;;;11.45;1.92;;;;;;;7.93;100.00;100668.78;5172784;27;20829;-75
2023/12/23 04:13:33;;;;;;;5.18;1.27;;;;;;;7.95;100.00;100671.00;5174599;27;20038;-75
2023/12/23 04:16:04;;;;;;;12.48;2.08;;;;;;;7.97;100.00;100653.53;5176532;27;20051;-74
2023/12/23 04:18:30;;;;;;;9.80;1.58;;;;;;;7.96;100.00;100649.38;5157004;27;20524;-74
2023/12/23 04:20:58;;;;;;;5.82;1.55;;;;;;;7.97;100.00;100650.88;5176304;27;20126;-74
2023/12/23 04:23:25;;;;;;;7.40;1.83;;;;;;;7.97;100.00;100655.44;5156264;27;20054;-74
2023/12/23 04:25:52;;;;;;;13.32;1.88;;;;;;;7.97;100.00;100650.88;5156568;27;20078;-74
2023/12/23 04:28:24;;;;;;;7.25;1.95;;;;;;;7.99;100.00;100648.53;5156280;27;20055;-74
2023/12/23 04:30:56;;;;;;;5.50;1.40;;;;;;;8.00;100.00;100654.56;5175515;27;20039;-74
2023/12/23 04:33:23;;;;;;;9.68;1.77;;;;;;;8.03;100.00;100657.09;5173566;27;20042;-74
2023/12/23 04:35:51;;;;;;;12.85;1.73;;;;;;;8.08;100.00;100649.78;5156403;27;20042;-74
2023/12/23 04:38:18;;;;;;;10.98;1.67;;;;;;;8.09;100.00;100649.38;5175618;27;20045;-74
2023/12/23 04:40:45;;;;;;;3.60;1.08;;;;;;;8.10;100.00;100658.06;5155965;27;20103;-75
2023/12/23 04:43:11;;;;;;;8.02;1.77;;;;;;;8.12;100.00;100647.78;5156311;27;20506;-75
2023/12/23 04:45:38;;;;;;;9.68;1.42;;;;;;;8.12;100.00;100632.63;5156519;27;20053;-75
2023/12/23 04:48:06;;;;;;;7.07;2.10;;;;;;;8.15;100.00;100639.72;5156569;27;20107;-74
2023/12/23 04:50:33;;;;;;;7.65;1.60;;;;;;;8.17;100.00;100629.44;5175102;27;20127;-74
2023/12/23 04:53:00;;;;;;;7.70;1.60;;;;;;;8.17;100.00;100634.75;5155864;27;20072;-74
2023/12/23 04:55:27;;;;;;;6.60;2.03;;;;;;;8.16;100.00;100625.31;5174917;27;20092;-75
2023/12/23 04:57:53;;;;;;;8.20;2.00;;;;;;;8.19;100.00;100621.81;5156587;27;20042;-75
2023/12/23 05:00:20;;;;;;;8.68;1.85;;;;;;;8.19;100.00;100624.47;5171905;27;20089;-75
2023/12/23 05:02:47;;;;;;;12.25;1.58;;;;;;;8.25;100.00;100629.97;5157131;27;20049;-75
2023/12/23 05:05:14;;;;;;;9.85;1.85;;;;;;;8.28;100.00;100629.88;5175135;27;20046;-75
2023/12/23 05:07:40;;;;;;;9.43;1.30;;;;;;;8.28;100.00;100629.88;5155737;27;20047;-75
2023/12/23 05:10:08;;;;;;;7.90;1.10;;;;;;;8.32;100.00;100645.69;5156651;27;20047;-75
2023/12/23 05:12:35;;;;;;;11.82;1.67;;;;;;;8.37;100.00;100629.25;5155885;27;20049;-75
2023/12/23 05:15:02;;;;;;;7.55;1.77;;;;;;;8.36;100.00;100614.50;5174379;27;20078;-75
2023/12/23 05:17:29;;;;;;;7.38;1.65;;;;;;;8.39;100.00;100634.13;5175268;27;20047;-75
2023/12/23 05:19:56;;;;;;;6.43;1.33;;;;;;;8.39;100.00;100620.88;5155906;27;20047;-75
2023/12/23 05:22:23;;;;;;;6.15;1.88;;;;;;;8.42;100.00;100622.66;5173707;27;20046;-75
2023/12/23 05:24:49;;;;;;;13.27;2.30;;;;;;;8.40;100.00;100623.06;5156640;27;20077;-75
2023/12/23 05:27:18;;;;;;;6.82;1.67;;;;;;;8.41;100.00;100634.44;5157136;27;20054;-75
2023/12/23 05:29:45;;;;;;;5.03;1.50;;;;;;;8.42;100.00;100635.91;5155423;27;20121;-75
2023/12/23 05:32:11;;;;;;;9.35;2.22;;;;;;;8.39;100.00;100642.84;5178841;27;20050;-75
2023/12/23 05:34:38;;;;;;;6.47;1.42;;;;;;;8.37;100.00;100618.66;5178241;27;20043;-75
2023/12/23 05:37:05;;;;;;;11.93;2.08;;;;;;;8.34;100.00;100635.41;5176759;27;20049;-74
2023/12/23 05:39:31;;;;;;;7.03;1.50;;;;;;;8.31;100.00;100618.41;5178525;27;20095;-74
2023/12/23 05:41:58;;;;;;;7.45;2.03;;;;;;;8.29;100.00;100623.41;5178735;27;20501;-74
2023/12/23 05:44:25;;;;;;;11.02;2.53;;;;;;;8.29;100.00;100626.03;5177684;27;20034;-75
2023/12/23 05:46:51;;;;;;;7.90;1.35;;;;;;;8.30;100.00;100611.63;5178389;27;20054;-75
2023/12/23 05:49:18;;;;;;;6.72;1.70;;;;;;;8.31;100.00;100628.28;5154985;27;20043;-75
2023/12/23 05:51:51;;;;;;;3.88;1.85;;;;;;;8.30;100.00;100632.84;5175375;27;20045;-75
2023/12/23 05:54:17;;;;;;;6.65;1.65;;;;;;;8.30;100.00;100608.97;5176666;27;20050;-74
2023/12/23 05:56:44;;;;;;;10.07;1.85;;;;;;;8.31;100.00;100618.41;5178592;27;20055;-74
2023/12/23 05:59:11;;;;;;;10.85;1.95;;;;;;;8.29;100.00;100607.47;5177844;27;20042;-74
2023/12/23 06:01:38;;;;;;;4.50;1.17;;;;;;;8.28;100.00;100627.22;5178019;27;20133;-74
2023/12/23 06:04:04;;;;;;;7.40;1.33;;;;;;;8.26;100.00;100605.69;5178516;27;20450;-75
2023/12/23 06:06:31;;;;;;;8.70;1.80;;;;;;;8.26;100.00;100612.91;5177895;27;20047;-75
2023/12/23 06:08:58;;;;;;;8.98;2.05;;;;;;;8.25;100.00;100622.75;5177881;27;20513;-75
2023/12/23 06:11:24;;;;;;;9.32;1.38;;;;;;;8.25;100.00;100606.09;5177729;27;20039;-75
2023/12/23 06:13:51;;;;;;;5.38;1.85;;;;;;;8.26;100.00;100615.53;5174459;27;20046;-75
2023/12/23 06:16:17;;;;;;;9.18;1.65;;;;;;;8.24;100.00;100613.31;5178576;27;20054;-75
2023/12/23 06:18:44;;;;;;;6.93;1.63;;;;;;;8.26;100.00;100626.16;5158811;27;20065;-75
2023/12/23 06:21:10;;;;;;;11.18;1.50;;;;;;;8.25;100.00;100614.81;5177353;27;20054;-75
2023/12/23 06:23:37;;;;;;;4.93;1.70;;;;;;;8.26;100.00;100605.69;5177965;27;20038;-75
2023/12/23 06:26:04;;;;;;;12.40;2.17;;;;;;;8.26;100.00;100610.25;5177633;27;20087;-75
2023/12/23 06:28:30;;;;;;;5.13;2.08;;;;;;;8.27;100.00;100619.69;5177250;27;20049;-75
2023/12/23 06:30:57;;;;;;;6.18;1.70;;;;;;;8.29;100.00;100609.38;5159241;27;20084;-75
2023/12/23 06:33:23;;;;;;;3.40;1.30;;;;;;;8.30;100.00;100608.97;5173603;27;20868;-75
2023/12/23 06:35:50;;;;;;;10.30;1.80;;;;;;;8.29;100.00;100620.75;5177812;27;20125;-75
2023/12/23 06:38:17;;;;;;;4.85;1.88;;;;;;;8.29;100.00;100615.44;5176358;27;20070;-75
2023/12/23 06:40:44;;;;;;;5.45;1.70;;;;;;;8.29;100.00;100604.09;5177326;27;20498;-75
2023/12/23 06:43:11;;;;;;;8.60;1.80;;;;;;;8.29;100.00;100614.69;5177054;27;20471;-75
2023/12/23 06:45:57;;;;;;;8.73;2.05;;;;;;;8.30;100.00;100601.00;5178074;27;20119;-75
2023/12/23 06:48:24;;;;;;;10.57;1.77;;;;;;;8.29;100.00;100607.47;5176960;27;20043;-75
2023/12/23 06:50:51;;;;;;;10.60;2.00;;;;;;;8.30;100.00;100608.22;5177962;27;20046;-75
2023/12/23 06:53:17;;;;;;;7.32;2.13;;;;;;;8.33;100.00;100600.19;5176440;27;20581;-75
2023/12/23 06:55:44;;;;;;;15.70;2.38;;;;;;;8.33;100.00;100594.88;5177382;27;20509;-75
2023/12/23 06:58:11;;;;;;;10.50;2.17;;;;;;;8.34;100.00;100595.63;5176150;27;20567;-75
2023/12/23 07:00:37;;;;;;;16.30;2.20;;;;;;;8.35;100.00;100589.91;5177845;27;20053;-76
2023/12/23 07:03:05;;;;;;;13.93;1.92;;;;;;;8.37;100.00;100594.03;5177624;27;20121;-76
2023/12/23 07:05:32;;;;;;;9.20;2.17;;;;;;;8.37;100.00;100596.69;5176445;27;20075;-76
2023/12/23 07:07:59;;;;;;;13.38;2.17;;;;;;;8.40;100.00;100593.91;5173545;27;20035;-75
2023/12/23 07:10:25;;;;;;;13.88;2.20;;;;;;;8.43;100.00;100618.81;5176850;27;20050;-75
2023/12/23 07:12:52;;;;;;;10.05;1.92;;;;;;;8.46;100.00;100626.69;5176489;27;20038;-76
2023/12/23 07:15:19;;;;;;;10.80;2.38;;;;;;;8.47;100.00;100624.75;5176361;27;20085;-76
2023/12/23 07:17:47;;;;;;;14.00;1.80;;;;;;;8.47;100.00;100628.16;5176622;27;20525;-74
2023/12/23 07:20:14;;;;;;;12.90;1.95;;;;;;;8.51;100.00;100623.47;5176930;27;20043;-76
2023/12/23 07:22:41;;;;;;;7.63;1.70;;;;;;;8.53;100.00;100628.38;5176794;27;20450;-76
2023/12/23 07:25:08;;;;;;;8.02;1.83;;;;;;;8.58;100.00;100620.59;5176965;27;20104;-76
2023/12/23 07:27:34;;;;;;;9.00;1.67;;;;;;;8.61;100.00;100641.00;5176208;27;20051;-76
2023/12/23 07:30:01;;;;;;;10.45;2.20;;;;;;;8.62;100.00;100626.56;5178053;27;20050;-76
2023/12/23 07:32:28;;;;;;;6.72;1.70;;;;;;;8.65;100.00;100640.88;5176622;27;20047;-75
2023/12/23 07:34:54;;;;;;;12.13;2.22;;;;;;;8.66;100.00;100643.09;5176867;27;20059;-75
2023/12/23 07:37:21;;;;;;;8.02;1.40;;;;;;;8.66;100.00;100651.06;5175726;27;20043;-76
2023/12/23 07:39:47;;;;;;;10.50;2.33;;;;;;;8.69;100.00;100625.59;5177666;27;20566;-78
2023/12/23 07:42:14;;;;;;;9.43;1.85;;;;;;;8.72;100.00;100637.25;5158154;27;20043;-77
2023/12/23 07:44:41;;;;;;;6.20;1.95;;;;;;;8.74;100.00;100627.69;5177026;27;20047;-77
2023/12/23 07:47:09;;;;;;;10.30;1.80;;;;;;;8.76;100.00;100620.06;5178790;27;20068;-79
2023/12/23 07:49:36;;;;;;;9.75;2.08;;;;;;;8.76;100.00;100630.66;5173914;27;20050;-78
2023/12/23 07:52:05;;;;;;;11.55;2.08;;;;;;;8.78;100.00;100627.59;5177950;27;20049;-79
2023/12/23 07:54:32;;;;;;;14.55;2.25;;;;;;;8.78;100.00;100628.31;5177350;27;20049;-79
2023/12/23 07:56:58;;;;;;;11.65;2.10;;;;;;;8.79;100.00;100626.41;5179825;27;20042;-78
2023/12/23 07:59:25;;;;;;;12.60;1.98;;;;;;;8.79;100.00;100629.06;5177947;27;20039;-78
2023/12/23 08:01:51;;;;;;;7.50;1.63;;;;;;;8.80;100.00;100630.53;5177675;27;20053;-77
2023/12/23 08:04:18;;;;;;;10.82;1.73;;;;;;;8.80;100.00;100652.50;5177496;27;20039;-76
2023/12/23 08:06:45;;;;;;;7.18;1.38;;;;;;;8.82;100.00;100655.47;5159282;27;20042;-76
2023/12/23 08:09:11;;;;;;;10.68;2.08;;;;;;;8.86;100.00;100634.88;5183585;27;20536;-78
2023/12/23 08:11:38;;;;;;;7.75;1.98;;;;;;;8.87;100.00;100641.66;5179261;27;20038;-77
2023/12/23 08:14:04;;;;;;;16.10;1.90;;;;;;;8.92;100.00;100651.00;5182472;27;20073;-77
2023/12/23 08:16:31;;;;;;;6.85;1.60;;;;;;;8.94;100.00;100646.72;5177220;27;20075;-83
2023/12/23 08:18:57;;;;;;;8.07;2.28;;;;;;;8.95;100.00;100645.56;5178060;27;20034;-78
2023/12/23 08:21:24;;;;;;;8.82;1.80;;;;;;;8.96;100.00;100649.72;5176560;27;20038;-78
2023/12/23 08:23:51;;;;;;;10.65;2.35;;;;;;;8.95;100.00;100650.88;5177627;27;20042;-78
2023/12/23 08:26:17;;;;;;;9.60;2.42;;;;;;;8.97;100.00;100658.41;5179265;27;20039;-80
2023/12/23 08:28:44;;;;;;;7.32;2.03;;;;;;;8.98;100.00;100660.63;5181309;27;20043;-78
2023/12/23 08:31:13;;;;;;;8.38;1.50;;;;;;;8.98;100.00;100649.28;5160123;27;20087;-79
2023/12/23 08:33:40;;;;;;;8.98;1.90;;;;;;;8.97;100.00;100658.41;5180438;27;20503;-78
2023/12/23 08:36:07;;;;;;;8.07;2.03;;;;;;;8.98;100.00;100657.25;5180959;27;20850;-77
2023/12/23 08:38:33;;;;;;;14.70;2.28;;;;;;;8.99;100.00;100656.81;5176318;27;20039;-76
2023/12/23 08:41:00;;;;;;;9.57;1.73;;;;;;;9.00;100.00;100658.28;5175626;27;20042;-75
2023/12/23 08:43:26;;;;;;;9.52;2.05;;;;;;;9.01;100.00;100649.16;5174560;27;20042;-75
2023/12/23 08:45:53;;;;;;;14.75;2.65;;;;;;;9.01;100.00;100662.44;5176030;27;20042;-75
2023/12/23 08:48:20;;;;;;;8.52;1.70;;;;;;;9.05;100.00;100656.28;5175507;27;20038;-75
2023/12/23 08:50:46;;;;;;;10.75;2.00;;;;;;;9.05;100.00;100664.25;5175853;27;20067;-75
2023/12/23 08:53:14;;;;;;;13.57;2.13;;;;;;;9.03;100.00;100675.28;5175126;27;20043;-75
2023/12/23 08:55:41;;;;;;;12.15;2.10;;;;;;;9.06;100.00;100679.00;5175495;27;20061;-75
2023/12/23 08:58:07;;;;;;;12.15;2.20;;;;;;;9.09;100.00;100688.75;5175411;27;20051;-76
2023/12/23 09:00:35;;;;;;;9.23;1.98;;;;;;;9.09;100.00;100686.09;5174498;27;20045;-76
2023/12/23 09:03:03;;;;;;;5.75;1.63;;;;;;;9.10;100.00;100687.59;5177164;27;20047;-75
2023/12/23 09:05:29;;;;;;;6.90;1.20;;;;;;;9.13;100.00;100692.03;5178188;27;20420;-75
2023/12/23 09:07:56;;;;;;;5.40;1.50;;;;;;;9.13;100.00;100684.81;5179872;27;20413;-75
2023/12/23 09:10:23;;;;;;;7.18;1.52;;;;;;;9.13;100.00;100695.44;5178925;27;20477;-75
2023/12/23 09:12:50;;;;;;;6.18;1.52;;;;;;;9.15;100.00;100689.69;5182266;27;20074;-78
2023/12/23 09:15:16;;;;;;;7.53;1.50;;;;;;;9.16;100.00;100681.31;5181602;27;20055;-79
2023/12/23 09:17:43;;;;;;;7.43;1.83;;;;;;;9.16;100.00;100697.25;5183071;27;20484;-76
2023/12/23 09:20:10;;;;;;;6.68;1.55;;;;;;;9.19;100.00;100706.25;5178843;27;20039;-78
2023/12/23 09:22:37;;;;;;;8.27;1.63;;;;;;;9.19;100.00;100709.66;5181405;27;20043;-78
2023/12/23 09:25:04;;;;;;;5.38;1.48;;;;;;;9.19;100.00;100716.88;5184227;27;20596;-81
2023/12/23 09:27:31;;;;;;;14.25;1.60;;;;;;;9.18;100.00;100710.84;5183824;27;20050;-78
2023/12/23 09:29:59;;;;;;;5.50;1.83;;;;;;;9.17;100.00;100717.31;5183845;27;20085;-78
2023/12/23 09:32:25;;;;;;;9.98;2.00;;;;;;;9.18;100.00;100718.06;5180563;27;20053;-77
2023/12/23 09:34:53;;;;;;;7.57;1.90;;;;;;;9.20;100.00;100705.81;5181021;27;20145;-78
2023/12/23 09:37:20;;;;;;;6.75;1.77;;;;;;;9.21;100.00;100717.19;5181507;27;20053;-77
2023/12/23 09:39:47;;;;;;;8.77;2.15;;;;;;;9.23;100.00;100706.88;5182309;27;20475;-79
2023/12/23 09:42:13;;;;;;;12.40;1.80;;;;;;;9.24;100.00;100718.97;5181014;27;20517;-78
2023/12/23 09:44:40;;;;;;;8.13;1.85;;;;;;;9.23;100.00;100718.22;5178603;27;20066;-77
2023/12/23 09:47:07;;;;;;;6.03;1.83;;;;;;;9.25;100.00;100723.13;5179508;27;20785;-80
2023/12/23 09:49:36;;;;;;;9.95;2.30;;;;;;;9.24;100.00;100721.63;5183517;27;20043;-74
2023/12/23 09:52:03;;;;;;;10.77;2.28;;;;;;;9.27;100.00;100728.75;5183067;27;20047;-79
2023/12/23 09:54:40;;;;;;;6.57;1.88;;;;;;;9.27;100.00;100726.81;5179749;27;20640;-77
2023/12/23 09:57:07;;;;;;;6.88;1.83;;;;;;;9.28;100.00;100730.97;5178715;27;20043;-77
2023/12/23 09:59:34;;;;;;;11.68;1.63;;;;;;;9.27;100.00;100729.47;5158223;27;20047;-77
2023/12/23 10:02:01;;;;;;;13.55;2.30;;;;;;;9.27;100.00;100731.41;5178835;27;20107;-77
2023/12/23 10:04:28;;;;;;;9.07;2.15;;;;;;;9.29;100.00;100745.00;5178248;27;20039;-77
2023/12/23 10:06:55;;;;;;;7.80;1.77;;;;;;;9.28;100.00;100736.28;5178239;27;20038;-77
2023/12/23 10:09:23;;;;;;;7.13;2.38;;;;;;;9.31;100.00;100727.44;5178184;27;20070;-77
2023/12/23 10:11:50;;;;;;;5.53;1.45;;;;;;;9.30;100.00;100718.00;5179057;27;20050;-76
2023/12/23 10:14:20;;;;;;;4.03;1.60;;;;;;;9.30;100.00;100736.59;5177865;27;20055;-77
2023/12/23 10:16:48;;;;;;;8.57;1.67;;;;;;;9.31;100.00;100722.13;5178680;27;20121;-77
2023/12/23 10:19:14;;;;;;;10.20;1.95;;;;;;;9.32;100.00;100726.28;5179765;27;20042;-76
2023/12/23 10:21:41;;;;;;;9.43;1.58;;;;;;;9.34;100.00;100731.16;5177538;27;20517;-76
2023/12/23 10:24:08;;;;;;;5.72;1.35;;;;;;;9.34;100.00;100728.50;5178951;27;20493;-76
2023/12/23 10:26:36;;;;;;;5.18;1.67;;;;;;;9.35;100.00;100717.44;5177568;27;20399;-77
2023/12/23 10:29:04;;;;;;;9.35;1.73;;;;;;;9.40;100.00;100729.44;5178588;27;20039;-77
2023/12/23 10:31:33;;;;;;;8.48;1.88;;;;;;;9.42;100.00;100726.38;5177789;27;20053;-77
2023/12/23 10:34:05;;;;;;;13.57;1.90;;;;;;;9.42;100.00;100729.75;5174180;27;20133;-77
2023/12/23 10:36:32;;;;;;;9.05;1.83;;;;;;;9.42;100.00;100727.09;5173882;27;20089;-77
2023/12/23 10:39:02;;;;;;;7.32;1.25;;;;;;;9.44;100.00;100711.47;5178890;27;20562;-78
2023/12/23 10:41:46;;;;;;;8.55;1.67;;;;;;;9.46;100.00;100741.00;5176273;27;20046;-77
2023/12/23 10:44:12;;;;;;;10.88;1.67;;;;;;;9.48;100.00;100738.66;5175380;27;20038;-77
2023/12/23 10:46:41;;;;;;;7.88;1.58;;;;;;;9.51;100.00;100734.41;5159239;27;20039;-77
2023/12/23 10:49:09;;;;;;;7.35;1.77;;;;;;;9.52;100.00;100746.53;5177953;27;20840;-77
2023/12/23 10:51:37;;;;;;;5.28;1.55;;;;;;;9.54;100.00;100733.53;5177898;27;20125;-76
2023/12/23 10:54:07;;;;;;;7.72;1.40;;;;;;;9.54;100.00;100730.88;5174254;27;20521;-76
2023/12/23 10:56:33;;;;;;;9.80;1.58;;;;;;;9.55;100.00;100735.78;5173636;27;20125;-75
2023/12/23 10:59:01;;;;;;;11.52;1.88;;;;;;;9.57;100.00;100748.63;5158610;27;20046;-78
2023/12/23 11:01:31;;;;;;;6.95;1.60;;;;;;;9.57;100.00;100752.03;5177476;27;20045;-76
2023/12/23 11:04:02;;;;;;;9.50;1.55;;;;;;;9.59;100.00;100738.31;5177609;27;20039;-77
2023/12/23 11:06:32;;;;;;;10.05;1.92;;;;;;;9.62;100.00;100740.81;5177337;27;20039;-76
2023/12/23 11:09:01;;;;;;;4.20;1.35;;;;;;;9.64;100.00;100745.72;5177574;27;20570;-78
2023/12/23 11:11:30;;;;;;;5.88;1.23;;;;;;;9.64;100.00;100754.44;5177601;27;20035;-78
2023/12/23 11:13:57;;;;;;;8.85;1.60;;;;;;;9.65;100.00;100739.22;5176811;27;20038;-78
2023/12/23 11:16:24;;;;;;;6.78;1.48;;;;;;;9.69;100.00;100734.53;5177735;27;20038;-76
2023/12/23 11:18:54;;;;;;;4.90;1.33;;;;;;;9.71;99.44;100740.16;5177733;27;20034;-76
2023/12/23 11:21:21;;;;;;;7.45;1.70;;;;;;;9.72;99.24;100738.22;5176481;27;20051;-76